sensor_id;sensor_type;location;lat;lon;timestamp;P1;durP1;ratioP1;P2;durP2;ratioP2
18931;SDS011;9598;50.954;3.112;2023-12-04T00:02:54;9.73;;;7.40;;
18931;SDS011;9598;50.954;3.112;2023-12-04T00:07:58;9.77;;;7.05;;
18931;SDS011;9598;50.954;3.112;2023-12-04T00:13:00;8.35;;;6.63;;
18931;SDS011;9598;50.954;3.112;2023-12-04T00:18:02;7.60;;;6.90;;
18931;SDS011;9598;50.954;3.112;2023-12-04T00:23:06;9.05;;;7.32;;
18931;SDS011;9598;50.954;3.112;2023-12-04T00:28:08;10.00;;;7.25;;
18931;SDS011;9598;50.954;3.112;2023-12-04T00:33:10;11.63;;;8.18;;
18931;SDS011;9598;50.954;3.112;2023-12-04T00:38:14;9.02;;;7.07;;
18931;SDS011;9598;50.954;3.112;2023-12-04T00:43:16;8.90;;;7.05;;
18931;SDS011;9598;50.954;3.112;2023-12-04T00:48:19;10.55;;;8.20;;
18931;SDS011;9598;50.954;3.112;2023-12-04T00:53:23;10.20;;;7.75;;
18931;SDS011;9598;50.954;3.112;2023-12-04T00:58:25;9.40;;;7.07;;
18931;SDS011;9598;50.954;3.112;2023-12-04T01:03:27;10.82;;;7.57;;
18931;SDS011;9598;50.954;3.112;2023-12-04T01:08:34;11.13;;;7.20;;
18931;SDS011;9598;50.954;3.112;2023-12-04T01:13:36;8.75;;;6.60;;
18931;SDS011;9598;50.954;3.112;2023-12-04T01:18:38;9.30;;;6.68;;
18931;SDS011;9598;50.954;3.112;2023-12-04T01:23:42;9.43;;;7.15;;
18931;SDS011;9598;50.954;3.112;2023-12-04T01:28:44;8.10;;;6.43;;
18931;SDS011;9598;50.954;3.112;2023-12-04T01:33:46;8.25;;;6.65;;
18931;SDS011;9598;50.954;3.112;2023-12-04T01:38:49;8.80;;;6.45;;
18931;SDS011;9598;50.954;3.112;2023-12-04T01:43:51;8.98;;;6.65;;
18931;SDS011;9598;50.954;3.112;2023-12-04T01:48:54;9.27;;;6.10;;
18931;SDS011;9598;50.954;3.112;2023-12-04T01:53:58;8.43;;;6.50;;
18931;SDS011;9598;50.954;3.112;2023-12-04T01:59:01;7.90;;;5.95;;
18931;SDS011;9598;50.954;3.112;2023-12-04T02:04:03;8.23;;;6.40;;
18931;SDS011;9598;50.954;3.112;2023-12-04T02:09:07;9.13;;;6.72;;
18931;SDS011;9598;50.954;3.112;2023-12-04T02:14:13;8.35;;;6.22;;
18931;SDS011;9598;50.954;3.112;2023-12-04T02:19:15;8.50;;;6.60;;
18931;SDS011;9598;50.954;3.112;2023-12-04T02:24:19;7.22;;;6.53;;
18931;SDS011;9598;50.954;3.112;2023-12-04T02:29:23;8.27;;;7.13;;
18931;SDS011;9598;50.954;3.112;2023-12-04T02:34:31;8.48;;;5.88;;
18931;SDS011;9598;50.954;3.112;2023-12-04T02:39:36;6.60;;;5.65;;
18931;SDS011;9598;50.954;3.112;2023-12-04T02:44:38;8.25;;;6.40;;
18931;SDS011;9598;50.954;3.112;2023-12-04T02:49:40;7.15;;;5.90;;
18931;SDS011;9598;50.954;3.112;2023-12-04T02:54:43;8.80;;;5.97;;
18931;SDS011;9598;50.954;3.112;2023-12-04T02:59:45;8.18;;;5.53;;
18931;SDS011;9598;50.954;3.112;2023-12-04T03:04:47;7.80;;;5.93;;
18931;SDS011;9598;50.954;3.112;2023-12-04T03:09:51;7.57;;;5.13;;
18931;SDS011;9598;50.954;3.112;2023-12-04T03:14:53;5.85;;;4.88;;
18931;SDS011;9598;50.954;3.112;2023-12-04T03:19:55;8.10;;;6.05;;
18931;SDS011;9598;50.954;3.112;2023-12-04T03:24:58;6.57;;;5.65;;
18931;SDS011;9598;50.954;3.112;2023-12-04T03:30:00;6.75;;;5.05;;
18931;SDS011;9598;50.954;3.112;2023-12-04T03:35:03;5.85;;;5.05;;
18931;SDS011;9598;50.954;3.112;2023-12-04T03:40:07;6.18;;;5.50;;
18931;SDS011;9598;50.954;3.112;2023-12-04T03:45:10;8.00;;;5.63;;
18931;SDS011;9598;50.954;3.112;2023-12-04T03:50:12;6.75;;;5.38;;
18931;SDS011;9598;50.954;3.112;2023-12-04T03:55:16;5.82;;;4.68;;
18931;SDS011;9598;50.954;3.112;2023-12-04T04:00:20;6.38;;;5.03;;
18931;SDS011;9598;50.954;3.112;2023-12-04T04:05:23;6.95;;;5.68;;
18931;SDS011;9598;50.954;3.112;2023-12-04T04:10:26;6.40;;;5.38;;
18931;SDS011;9598;50.954;3.112;2023-12-04T04:15:28;6.78;;;5.32;;
18931;SDS011;9598;50.954;3.112;2023-12-04T04:20:30;6.78;;;5.47;;
18931;SDS011;9598;50.954;3.112;2023-12-04T04:25:34;6.00;;;5.25;;
18931;SDS011;9598;50.954;3.112;2023-12-04T04:30:36;6.00;;;5.18;;
18931;SDS011;9598;50.954;3.112;2023-12-04T04:35:38;6.32;;;5.43;;
18931;SDS011;9598;50.954;3.112;2023-12-04T04:40:42;7.35;;;5.95;;
18931;SDS011;9598;50.954;3.112;2023-12-04T04:45:44;6.45;;;5.32;;
18931;SDS011;9598;50.954;3.112;2023-12-04T04:50:46;6.82;;;5.20;;
18931;SDS011;9598;50.954;3.112;2023-12-04T04:55:50;9.10;;;5.40;;
18931;SDS011;9598;50.954;3.112;2023-12-04T05:00:52;7.78;;;5.63;;
18931;SDS011;9598;50.954;3.112;2023-12-04T05:05:54;7.05;;;5.53;;
18931;SDS011;9598;50.954;3.112;2023-12-04T05:10:57;6.38;;;4.88;;
18931;SDS011;9598;50.954;3.112;2023-12-04T05:15:59;6.18;;;5.25;;
18931;SDS011;9598;50.954;3.112;2023-12-04T05:21:01;6.68;;;4.60;;
18931;SDS011;9598;50.954;3.112;2023-12-04T05:26:06;6.80;;;5.03;;
18931;SDS011;9598;50.954;3.112;2023-12-04T05:31:08;6.97;;;4.88;;
18931;SDS011;9598;50.954;3.112;2023-12-04T05:36:11;6.25;;;4.85;;
18931;SDS011;9598;50.954;3.112;2023-12-04T05:41:14;7.05;;;5.18;;
18931;SDS011;9598;50.954;3.112;2023-12-04T05:46:16;5.78;;;5.15;;
18931;SDS011;9598;50.954;3.112;2023-12-04T05:51:18;6.15;;;5.40;;
18931;SDS011;9598;50.954;3.112;2023-12-04T05:56:22;5.75;;;4.47;;
18931;SDS011;9598;50.954;3.112;2023-12-04T06:01:24;6.28;;;4.90;;
18931;SDS011;9598;50.954;3.112;2023-12-04T06:06:26;5.30;;;4.55;;
18931;SDS011;9598;50.954;3.112;2023-12-04T06:11:30;5.40;;;4.35;;
18931;SDS011;9598;50.954;3.112;2023-12-04T06:16:32;5.05;;;4.10;;
18931;SDS011;9598;50.954;3.112;2023-12-04T06:21:34;5.25;;;4.60;;
18931;SDS011;9598;50.954;3.112;2023-12-04T06:26:37;5.93;;;4.60;;
18931;SDS011;9598;50.954;3.112;2023-12-04T06:31:42;5.63;;;5.00;;
18931;SDS011;9598;50.954;3.112;2023-12-04T06:36:45;5.72;;;4.65;;
18931;SDS011;9598;50.954;3.112;2023-12-04T06:41:49;6.45;;;5.53;;
18931;SDS011;9598;50.954;3.112;2023-12-04T06:46:51;6.57;;;5.88;;
18931;SDS011;9598;50.954;3.112;2023-12-04T06:51:54;6.40;;;5.15;;
18931;SDS011;9598;50.954;3.112;2023-12-04T06:56:58;7.32;;;5.32;;
18931;SDS011;9598;50.954;3.112;2023-12-04T07:02:00;7.75;;;5.80;;
18931;SDS011;9598;50.954;3.112;2023-12-04T07:07:02;8.48;;;5.82;;
18931;SDS011;9598;50.954;3.112;2023-12-04T07:12:07;8.02;;;5.25;;
18931;SDS011;9598;50.954;3.112;2023-12-04T07:17:09;6.38;;;5.35;;
18931;SDS011;9598;50.954;3.112;2023-12-04T07:22:12;6.57;;;5.25;;
18931;SDS011;9598;50.954;3.112;2023-12-04T07:27:15;8.13;;;6.43;;
18931;SDS011;9598;50.954;3.112;2023-12-04T07:32:18;7.22;;;6.10;;
18931;SDS011;9598;50.954;3.112;2023-12-04T07:37:20;7.35;;;5.80;;
18931;SDS011;9598;50.954;3.112;2023-12-04T07:42:23;8.32;;;6.43;;
18931;SDS011;9598;50.954;3.112;2023-12-04T07:47:25;13.00;;;6.53;;
18931;SDS011;9598;50.954;3.112;2023-12-04T07:52:27;7.15;;;6.45;;
18931;SDS011;9598;50.954;3.112;2023-12-04T07:57:31;9.98;;;6.70;;
18931;SDS011;9598;50.954;3.112;2023-12-04T08:02:33;8.68;;;6.07;;
18931;SDS011;9598;50.954;3.112;2023-12-04T08:07:35;9.80;;;7.20;;
18931;SDS011;9598;50.954;3.112;2023-12-04T08:12:39;8.10;;;6.55;;
18931;SDS011;9598;50.954;3.112;2023-12-04T08:17:41;7.35;;;6.35;;
18931;SDS011;9598;50.954;3.112;2023-12-04T08:22:43;9.32;;;6.20;;
18931;SDS011;9598;50.954;3.112;2023-12-04T08:27:46;8.40;;;6.20;;
18931;SDS011;9598;50.954;3.112;2023-12-04T08:32:50;7.93;;;6.07;;
18931;SDS011;9598;50.954;3.112;2023-12-04T08:37:52;7.05;;;5.78;;
18931;SDS011;9598;50.954;3.112;2023-12-04T08:42:55;5.80;;;5.30;;
18931;SDS011;9598;50.954;3.112;2023-12-04T08:47:57;6.97;;;5.95;;
18931;SDS011;9598;50.954;3.112;2023-12-04T08:52:59;8.95;;;6.13;;
18931;SDS011;9598;50.954;3.112;2023-12-04T08:58:03;7.45;;;6.00;;
18931;SDS011;9598;50.954;3.112;2023-12-04T09:03:05;7.82;;;6.90;;
18931;SDS011;9598;50.954;3.112;2023-12-04T09:08:07;6.80;;;6.10;;
18931;SDS011;9598;50.954;3.112;2023-12-04T09:13:10;8.25;;;6.05;;
18931;SDS011;9598;50.954;3.112;2023-12-04T09:18:12;8.07;;;6.45;;
18931;SDS011;9598;50.954;3.112;2023-12-04T09:23:15;7.35;;;5.78;;
18931;SDS011;9598;50.954;3.112;2023-12-04T09:28:19;7.90;;;5.65;;
18931;SDS011;9598;50.954;3.112;2023-12-04T09:33:21;8.55;;;6.20;;
18931;SDS011;9598;50.954;3.112;2023-12-04T09:38:23;7.32;;;6.30;;
18931;SDS011;9598;50.954;3.112;2023-12-04T09:43:27;9.05;;;5.45;;
18931;SDS011;9598;50.954;3.112;2023-12-04T09:48:32;6.63;;;4.93;;
18931;SDS011;9598;50.954;3.112;2023-12-04T09:53:35;7.03;;;5.93;;
18931;SDS011;9598;50.954;3.112;2023-12-04T09:58:39;8.13;;;6.13;;
18931;SDS011;9598;50.954;3.112;2023-12-04T10:03:42;7.97;;;5.82;;
18931;SDS011;9598;50.954;3.112;2023-12-04T10:08:45;6.20;;;5.20;;
18931;SDS011;9598;50.954;3.112;2023-12-04T10:13:48;7.53;;;6.05;;
18931;SDS011;9598;50.954;3.112;2023-12-04T10:24:26;7.35;;;6.10;;
18931;SDS011;9598;50.954;3.112;2023-12-04T10:29:41;7.18;;;6.00;;
18931;SDS011;9598;50.954;3.112;2023-12-04T10:34:44;9.35;;;6.78;;
18931;SDS011;9598;50.954;3.112;2023-12-04T10:39:49;7.05;;;5.63;;
18931;SDS011;9598;50.954;3.112;2023-12-04T10:44:56;6.78;;;5.25;;
18931;SDS011;9598;50.954;3.112;2023-12-04T10:50:00;7.90;;;6.38;;
18931;SDS011;9598;50.954;3.112;2023-12-04T10:55:04;7.07;;;6.35;;
18931;SDS011;9598;50.954;3.112;2023-12-04T11:00:11;7.47;;;5.65;;
18931;SDS011;9598;50.954;3.112;2023-12-04T11:05:16;8.63;;;7.30;;
18931;SDS011;9598;50.954;3.112;2023-12-04T11:10:22;8.23;;;6.15;;
18931;SDS011;9598;50.954;3.112;2023-12-04T11:15:26;6.38;;;5.70;;
18931;SDS011;9598;50.954;3.112;2023-12-04T11:20:31;6.85;;;6.15;;
18931;SDS011;9598;50.954;3.112;2023-12-04T11:25:35;7.88;;;5.72;;
18931;SDS011;9598;50.954;3.112;2023-12-04T11:30:39;7.35;;;5.97;;
18931;SDS011;9598;50.954;3.112;2023-12-04T11:35:41;6.72;;;5.97;;
18931;SDS011;9598;50.954;3.112;2023-12-04T11:40:43;6.60;;;5.50;;
18931;SDS011;9598;50.954;3.112;2023-12-04T11:45:49;6.85;;;5.70;;
18931;SDS011;9598;50.954;3.112;2023-12-04T11:50:51;5.93;;;5.30;;
18931;SDS011;9598;50.954;3.112;2023-12-04T11:55:55;5.63;;;5.03;;
18931;SDS011;9598;50.954;3.112;2023-12-04T12:00:59;5.50;;;4.97;;
18931;SDS011;9598;50.954;3.112;2023-12-04T12:06:01;5.32;;;4.82;;
18931;SDS011;9598;50.954;3.112;2023-12-04T12:11:05;5.95;;;4.53;;
18931;SDS011;9598;50.954;3.112;2023-12-04T12:16:09;6.53;;;5.43;;
18931;SDS011;9598;50.954;3.112;2023-12-04T12:21:13;5.80;;;4.63;;
18931;SDS011;9598;50.954;3.112;2023-12-04T12:26:16;4.47;;;4.07;;
18931;SDS011;9598;50.954;3.112;2023-12-04T12:31:19;6.22;;;4.07;;
18931;SDS011;9598;50.954;3.112;2023-12-04T12:36:22;6.30;;;4.63;;
18931;SDS011;9598;50.954;3.112;2023-12-04T12:41:24;5.47;;;4.05;;
18931;SDS011;9598;50.954;3.112;2023-12-04T12:46:28;5.03;;;4.50;;
18931;SDS011;9598;50.954;3.112;2023-12-04T12:51:30;5.32;;;4.63;;
18931;SDS011;9598;50.954;3.112;2023-12-04T12:56:33;5.28;;;4.32;;
18931;SDS011;9598;50.954;3.112;2023-12-04T13:01:37;5.15;;;4.30;;
18931;SDS011;9598;50.954;3.112;2023-12-04T13:06:40;6.00;;;4.70;;
18931;SDS011;9598;50.954;3.112;2023-12-04T13:11:42;7.88;;;5.80;;
18931;SDS011;9598;50.954;3.112;2023-12-04T13:16:46;5.85;;;4.90;;
18931;SDS011;9598;50.954;3.112;2023-12-04T13:21:48;4.28;;;3.88;;
18931;SDS011;9598;50.954;3.112;2023-12-04T13:26:50;4.53;;;4.13;;
18931;SDS011;9598;50.954;3.112;2023-12-04T13:31:54;4.38;;;3.90;;
18931;SDS011;9598;50.954;3.112;2023-12-04T13:36:56;4.65;;;4.18;;
18931;SDS011;9598;50.954;3.112;2023-12-04T13:41:59;7.15;;;5.18;;
18931;SDS011;9598;50.954;3.112;2023-12-04T13:47:19;6.70;;;4.43;;
18931;SDS011;9598;50.954;3.112;2023-12-04T13:52:22;5.22;;;4.30;;
18931;SDS011;9598;50.954;3.112;2023-12-04T13:57:24;6.05;;;5.45;;
18931;SDS011;9598;50.954;3.112;2023-12-04T14:02:29;6.68;;;5.28;;
18931;SDS011;9598;50.954;3.112;2023-12-04T14:07:31;9.85;;;6.47;;
18931;SDS011;9598;50.954;3.112;2023-12-04T14:12:33;7.97;;;6.07;;
18931;SDS011;9598;50.954;3.112;2023-12-04T14:17:38;8.13;;;6.93;;
18931;SDS011;9598;50.954;3.112;2023-12-04T14:22:42;8.52;;;7.28;;
18931;SDS011;9598;50.954;3.112;2023-12-04T14:27:45;12.73;;;7.68;;
18931;SDS011;9598;50.954;3.112;2023-12-04T14:32:49;9.38;;;6.93;;
18931;SDS011;9598;50.954;3.112;2023-12-04T14:37:51;7.47;;;6.25;;
18931;SDS011;9598;50.954;3.112;2023-12-04T14:42:53;8.20;;;6.05;;
18931;SDS011;9598;50.954;3.112;2023-12-04T14:47:57;6.85;;;5.90;;
18931;SDS011;9598;50.954;3.112;2023-12-04T14:52:59;6.78;;;5.75;;
18931;SDS011;9598;50.954;3.112;2023-12-04T14:58:15;7.05;;;6.45;;
18931;SDS011;9598;50.954;3.112;2023-12-04T15:03:51;8.68;;;6.55;;
18931;SDS011;9598;50.954;3.112;2023-12-04T15:09:16;8.35;;;7.00;;
18931;SDS011;9598;50.954;3.112;2023-12-04T15:14:35;6.93;;;6.22;;
18931;SDS011;9598;50.954;3.112;2023-12-04T15:19:45;7.25;;;6.63;;
18931;SDS011;9598;50.954;3.112;2023-12-04T15:25:17;7.60;;;6.75;;
18931;SDS011;9598;50.954;3.112;2023-12-04T15:30:20;7.82;;;6.22;;
18931;SDS011;9598;50.954;3.112;2023-12-04T15:35:24;7.93;;;7.10;;
18931;SDS011;9598;50.954;3.112;2023-12-04T15:40:26;8.50;;;7.60;;
18931;SDS011;9598;50.954;3.112;2023-12-04T15:45:28;11.65;;;7.63;;
18931;SDS011;9598;50.954;3.112;2023-12-04T15:50:32;7.82;;;7.07;;
18931;SDS011;9598;50.954;3.112;2023-12-04T15:55:34;9.07;;;7.43;;
18931;SDS011;9598;50.954;3.112;2023-12-04T16:00:37;12.05;;;8.57;;
18931;SDS011;9598;50.954;3.112;2023-12-04T16:05:40;9.23;;;8.23;;
18931;SDS011;9598;50.954;3.112;2023-12-04T16:10:43;9.77;;;8.35;;
18931;SDS011;9598;50.954;3.112;2023-12-04T16:15:46;12.05;;;9.82;;
18931;SDS011;9598;50.954;3.112;2023-12-04T16:20:50;12.52;;;9.77;;
18931;SDS011;9598;50.954;3.112;2023-12-04T16:25:52;11.77;;;10.50;;
18931;SDS011;9598;50.954;3.112;2023-12-04T16:30:54;14.27;;;10.20;;
18931;SDS011;9598;50.954;3.112;2023-12-04T16:35:58;14.77;;;12.15;;
18931;SDS011;9598;50.954;3.112;2023-12-04T16:41:00;14.70;;;11.48;;
18931;SDS011;9598;50.954;3.112;2023-12-04T16:46:04;12.80;;;11.57;;
18931;SDS011;9598;50.954;3.112;2023-12-04T16:51:08;12.82;;;11.52;;
18931;SDS011;9598;50.954;3.112;2023-12-04T16:56:11;12.48;;;11.18;;
18931;SDS011;9598;50.954;3.112;2023-12-04T17:01:14;13.32;;;11.38;;
18931;SDS011;9598;50.954;3.112;2023-12-04T17:06:17;13.80;;;11.85;;
18931;SDS011;9598;50.954;3.112;2023-12-04T17:11:19;12.32;;;10.70;;
18931;SDS011;9598;50.954;3.112;2023-12-04T17:16:22;15.43;;;13.77;;
18931;SDS011;9598;50.954;3.112;2023-12-04T17:21:27;14.00;;;12.52;;
18931;SDS011;9598;50.954;3.112;2023-12-04T17:26:29;13.20;;;11.82;;
18931;SDS011;9598;50.954;3.112;2023-12-04T17:31:31;13.55;;;12.15;;
18931;SDS011;9598;50.954;3.112;2023-12-04T17:36:35;13.88;;;12.40;;
18931;SDS011;9598;50.954;3.112;2023-12-04T17:41:37;13.40;;;12.10;;
18931;SDS011;9598;50.954;3.112;2023-12-04T17:46:39;14.75;;;13.25;;
18931;SDS011;9598;50.954;3.112;2023-12-04T17:51:43;19.92;;;15.98;;
18931;SDS011;9598;50.954;3.112;2023-12-04T17:56:45;16.17;;;14.27;;
18931;SDS011;9598;50.954;3.112;2023-12-04T18:01:47;15.73;;;14.05;;
18931;SDS011;9598;50.954;3.112;2023-12-04T18:06:50;16.75;;;13.55;;
18931;SDS011;9598;50.954;3.112;2023-12-04T18:11:53;15.75;;;14.15;;
18931;SDS011;9598;50.954;3.112;2023-12-04T18:16:55;16.25;;;14.75;;
18931;SDS011;9598;50.954;3.112;2023-12-04T18:21:58;16.52;;;14.52;;
18931;SDS011;9598;50.954;3.112;2023-12-04T18:27:01;17.13;;;15.25;;
18931;SDS011;9598;50.954;3.112;2023-12-04T18:32:04;16.45;;;13.60;;
18931;SDS011;9598;50.954;3.112;2023-12-04T18:37:10;15.70;;;14.10;;
18931;SDS011;9598;50.954;3.112;2023-12-04T18:42:21;15.80;;;14.30;;
18931;SDS011;9598;50.954;3.112;2023-12-04T18:47:23;15.35;;;13.73;;
18931;SDS011;9598;50.954;3.112;2023-12-04T18:52:29;16.63;;;14.90;;
18931;SDS011;9598;50.954;3.112;2023-12-04T18:57:33;17.50;;;15.68;;
18931;SDS011;9598;50.954;3.112;2023-12-04T19:02:35;18.95;;;16.58;;
18931;SDS011;9598;50.954;3.112;2023-12-04T19:07:38;18.58;;;16.67;;
18931;SDS011;9598;50.954;3.112;2023-12-04T19:12:40;15.55;;;13.82;;
18931;SDS011;9598;50.954;3.112;2023-12-04T19:17:42;18.52;;;16.63;;
18931;SDS011;9598;50.954;3.112;2023-12-04T19:22:46;18.73;;;16.77;;
18931;SDS011;9598;50.954;3.112;2023-12-04T19:27:48;17.67;;;15.80;;
18931;SDS011;9598;50.954;3.112;2023-12-04T19:32:50;18.15;;;16.48;;
18931;SDS011;9598;50.954;3.112;2023-12-04T19:37:53;18.70;;;16.80;;
18931;SDS011;9598;50.954;3.112;2023-12-04T19:42:56;18.75;;;16.98;;
18931;SDS011;9598;50.954;3.112;2023-12-04T19:47:58;19.02;;;17.23;;
18931;SDS011;9598;50.954;3.112;2023-12-04T19:53:01;18.70;;;15.90;;
18931;SDS011;9598;50.954;3.112;2023-12-04T19:58:03;18.48;;;16.70;;
18931;SDS011;9598;50.954;3.112;2023-12-04T20:03:06;19.27;;;17.25;;
18931;SDS011;9598;50.954;3.112;2023-12-04T20:08:12;19.10;;;17.20;;
18931;SDS011;9598;50.954;3.112;2023-12-04T20:13:15;17.75;;;15.63;;
18931;SDS011;9598;50.954;3.112;2023-12-04T20:18:17;18.63;;;16.83;;
18931;SDS011;9598;50.954;3.112;2023-12-04T20:23:21;19.77;;;17.88;;
18931;SDS011;9598;50.954;3.112;2023-12-04T20:28:23;19.98;;;18.05;;
18931;SDS011;9598;50.954;3.112;2023-12-04T20:33:25;20.52;;;18.52;;
18931;SDS011;9598;50.954;3.112;2023-12-04T20:38:28;20.92;;;18.77;;
18931;SDS011;9598;50.954;3.112;2023-12-04T20:43:31;20.75;;;18.55;;
18931;SDS011;9598;50.954;3.112;2023-12-04T20:48:34;20.33;;;18.42;;
18931;SDS011;9598;50.954;3.112;2023-12-04T20:53:37;19.85;;;17.85;;
18931;SDS011;9598;50.954;3.112;2023-12-04T20:58:39;20.48;;;18.58;;
18931;SDS011;9598;50.954;3.112;2023-12-04T21:03:41;20.67;;;18.67;;
18931;SDS011;9598;50.954;3.112;2023-12-04T21:08:45;19.05;;;17.15;;
18931;SDS011;9598;50.954;3.112;2023-12-04T21:13:47;18.80;;;17.00;;
18931;SDS011;9598;50.954;3.112;2023-12-04T21:18:49;18.15;;;16.40;;
18931;SDS011;9598;50.954;3.112;2023-12-04T21:23:52;17.60;;;15.98;;
18931;SDS011;9598;50.954;3.112;2023-12-04T21:28:55;17.77;;;16.17;;
18931;SDS011;9598;50.954;3.112;2023-12-04T21:33:57;18.60;;;16.70;;
18931;SDS011;9598;50.954;3.112;2023-12-04T21:39:01;18.27;;;16.38;;
18931;SDS011;9598;50.954;3.112;2023-12-04T21:44:04;18.45;;;16.48;;
18931;SDS011;9598;50.954;3.112;2023-12-04T21:49:07;17.35;;;15.73;;
18931;SDS011;9598;50.954;3.112;2023-12-04T21:54:10;18.70;;;16.95;;
18931;SDS011;9598;50.954;3.112;2023-12-04T21:59:13;19.15;;;17.40;;
18931;SDS011;9598;50.954;3.112;2023-12-04T22:04:15;19.85;;;17.75;;
18931;SDS011;9598;50.954;3.112;2023-12-04T22:09:18;19.38;;;17.52;;
18931;SDS011;9598;50.954;3.112;2023-12-04T22:14:23;20.98;;;18.33;;
18931;SDS011;9598;50.954;3.112;2023-12-04T22:19:25;21.98;;;19.77;;
18931;SDS011;9598;50.954;3.112;2023-12-04T22:24:28;20.98;;;18.83;;
18931;SDS011;9598;50.954;3.112;2023-12-04T22:29:30;20.05;;;18.05;;
18931;SDS011;9598;50.954;3.112;2023-12-04T22:34:32;21.95;;;19.77;;
18931;SDS011;9598;50.954;3.112;2023-12-04T22:39:36;20.83;;;18.80;;
18931;SDS011;9598;50.954;3.112;2023-12-04T22:44:38;21.38;;;19.27;;
18931;SDS011;9598;50.954;3.112;2023-12-04T22:49:40;20.95;;;18.85;;
18931;SDS011;9598;50.954;3.112;2023-12-04T22:54:44;21.00;;;18.90;;
18931;SDS011;9598;50.954;3.112;2023-12-04T22:59:46;20.42;;;18.50;;
18931;SDS011;9598;50.954;3.112;2023-12-04T23:04:48;19.40;;;17.48;;
18931;SDS011;9598;50.954;3.112;2023-12-04T23:09:52;18.05;;;16.38;;
18931;SDS011;9598;50.954;3.112;2023-12-04T23:14:54;19.92;;;17.92;;
18931;SDS011;9598;50.954;3.112;2023-12-04T23:19:56;21.70;;;19.65;;
18931;SDS011;9598;50.954;3.112;2023-12-04T23:25:00;20.98;;;18.70;;
18931;SDS011;9598;50.954;3.112;2023-12-04T23:30:02;20.67;;;18.77;;
18931;SDS011;9598;50.954;3.112;2023-12-04T23:35:05;22.20;;;19.90;;
18931;SDS011;9598;50.954;3.112;2023-12-04T23:40:09;21.85;;;18.85;;
18931;SDS011;9598;50.954;3.112;2023-12-04T23:45:11;21.77;;;19.58;;
18931;SDS011;9598;50.954;3.112;2023-12-04T23:50:13;19.55;;;17.65;;
18931;SDS011;9598;50.954;3.112;2023-12-04T23:55:17;22.02;;;19.83;;
